sensor_id;sensor_type;location;lat;lon;timestamp;temperature;humidity
6008;DHT22;3032;49.484;11.112;2023-02-11T00:02:01;-0.30;99.90
6008;DHT22;3032;49.484;11.112;2023-02-11T00:04:29;-0.40;99.90
6008;DHT22;3032;49.484;11.112;2023-02-11T00:06:55;-1.10;99.90
6008;DHT22;3032;49.484;11.112;2023-02-11T00:09:20;-1.10;99.90
6008;DHT22;3032;49.484;11.112;2023-02-11T00:11:46;-1.50;99.90
6008;DHT22;3032;49.484;11.112;2023-02-11T00:14:11;-1.70;99.90
6008;DHT22;3032;49.484;11.112;2023-02-11T00:16:37;-1.60;99.90
6008;DHT22;3032;49.484;11.112;2023-02-11T00:19:03;-1.60;99.90
6008;DHT22;3032;49.484;11.112;2023-02-11T00:21:31;-1.50;99.90
6008;DHT22;3032;49.484;11.112;2023-02-11T00:23:57;-1.40;99.90
6008;DHT22;3032;49.484;11.112;2023-02-11T00:26:26;-1.40;99.90
6008;DHT22;3032;49.484;11.112;2023-02-11T00:28:52;-1.00;99.90
6008;DHT22;3032;49.484;11.112;2023-02-11T00:31:19;-0.80;99.90
6008;DHT22;3032;49.484;11.112;2023-02-11T00:33:45;-1.00;99.90
6008;DHT22;3032;49.484;11.112;2023-02-11T00:36:15;-1.00;99.90
6008;DHT22;3032;49.484;11.112;2023-02-11T00:38:44;-1.10;99.90
6008;DHT22;3032;49.484;11.112;2023-02-11T00:41:11;-0.80;99.90
6008;DHT22;3032;49.484;11.112;2023-02-11T00:43:37;-0.60;99.90
6008;DHT22;3032;49.484;11.112;2023-02-11T00:46:03;-0.60;99.90
6008;DHT22;3032;49.484;11.112;2023-02-11T00:48:29;-0.60;99.90
6008;DHT22;3032;49.484;11.112;2023-02-11T00:50:55;-0.70;99.90
6008;DHT22;3032;49.484;11.112;2023-02-11T00:53:20;-0.70;99.90
6008;DHT22;3032;49.484;11.112;2023-02-11T00:55:46;-0.80;99.90
6008;DHT22;3032;49.484;11.112;2023-02-11T00:58:11;-0.80;99.90
6008;DHT22;3032;49.484;11.112;2023-02-11T01:00:37;-0.70;99.90
6008;DHT22;3032;49.484;11.112;2023-02-11T01:03:03;-0.80;99.90
6008;DHT22;3032;49.484;11.112;2023-02-11T01:05:28;-0.90;99.90
6008;DHT22;3032;49.484;11.112;2023-02-11T01:07:54;-1.00;99.90
6008;DHT22;3032;49.484;11.112;2023-02-11T01:10:19;-1.20;99.90
6008;DHT22;3032;49.484;11.112;2023-02-11T01:12:45;-1.30;99.90
6008;DHT22;3032;49.484;11.112;2023-02-11T01:15:13;-1.60;99.90
6008;DHT22;3032;49.484;11.112;2023-02-11T01:17:39;-2.20;99.90
6008;DHT22;3032;49.484;11.112;2023-02-11T01:20:07;-2.20;99.90
6008;DHT22;3032;49.484;11.112;2023-02-11T01:22:32;-2.00;99.90
6008;DHT22;3032;49.484;11.112;2023-02-11T01:24:59;-1.70;99.90
6008;DHT22;3032;49.484;11.112;2023-02-11T01:27:25;-1.60;99.90
6008;DHT22;3032;49.484;11.112;2023-02-11T01:29:50;-0.90;99.90
6008;DHT22;3032;49.484;11.112;2023-02-11T01:32:16;-1.50;99.90
6008;DHT22;3032;49.484;11.112;2023-02-11T01:34:42;-1.50;99.90
6008;DHT22;3032;49.484;11.112;2023-02-11T01:37:07;-1.40;99.90
6008;DHT22;3032;49.484;11.112;2023-02-11T01:39:33;-1.70;99.90
6008;DHT22;3032;49.484;11.112;2023-02-11T01:41:59;-1.60;99.90
6008;DHT22;3032;49.484;11.112;2023-02-11T01:44:34;-1.30;99.90
6008;DHT22;3032;49.484;11.112;2023-02-11T01:47:01;-1.10;99.90
6008;DHT22;3032;49.484;11.112;2023-02-11T01:49:45;-1.00;99.90
6008;DHT22;3032;49.484;11.112;2023-02-11T01:52:21;-1.20;99.90
6008;DHT22;3032;49.484;11.112;2023-02-11T01:55:01;-2.00;99.90
6008;DHT22;3032;49.484;11.112;2023-02-11T01:57:50;-2.10;99.90
6008;DHT22;3032;49.484;11.112;2023-02-11T02:00:34;-1.80;99.90
6008;DHT22;3032;49.484;11.112;2023-02-11T02:03:05;-1.90;99.90
6008;DHT22;3032;49.484;11.112;2023-02-11T02:05:42;-2.00;99.90
6008;DHT22;3032;49.484;11.112;2023-02-11T02:08:23;-1.90;99.90
6008;DHT22;3032;49.484;11.112;2023-02-11T02:10:54;-2.10;99.90
6008;DHT22;3032;49.484;11.112;2023-02-11T02:13:22;-1.90;99.90
6008;DHT22;3032;49.484;11.112;2023-02-11T02:15:55;-1.90;99.90
6008;DHT22;3032;49.484;11.112;2023-02-11T02:22:07;-1.50;99.90
6008;DHT22;3032;49.484;11.112;2023-02-11T02:29:53;-0.80;99.90
6008;DHT22;3032;49.484;11.112;2023-02-11T02:35:15;-1.20;99.90
6008;DHT22;3032;49.484;11.112;2023-02-11T02:40:45;-0.90;99.90
6008;DHT22;3032;49.484;11.112;2023-02-11T02:43:12;-1.00;99.90
6008;DHT22;3032;49.484;11.112;2023-02-11T02:45:38;-1.00;99.90
6008;DHT22;3032;49.484;11.112;2023-02-11T02:48:03;-0.70;99.90
6008;DHT22;3032;49.484;11.112;2023-02-11T02:50:34;-0.60;99.90
6008;DHT22;3032;49.484;11.112;2023-02-11T02:53:20;-0.70;99.90
6008;DHT22;3032;49.484;11.112;2023-02-11T02:56:11;-0.50;99.90
6008;DHT22;3032;49.484;11.112;2023-02-11T02:59:12;-0.30;99.90
6008;DHT22;3032;49.484;11.112;2023-02-11T03:07:11;-0.70;99.90
6008;DHT22;3032;49.484;11.112;2023-02-11T03:09:49;-0.70;99.90
6008;DHT22;3032;49.484;11.112;2023-02-11T03:12:15;-0.50;99.90
6008;DHT22;3032;49.484;11.112;2023-02-11T03:14:42;-0.40;99.90
6008;DHT22;3032;49.484;11.112;2023-02-11T03:17:09;-0.30;99.90
6008;DHT22;3032;49.484;11.112;2023-02-11T03:19:40;0.00;99.90
6008;DHT22;3032;49.484;11.112;2023-02-11T03:22:12;0.20;99.90
6008;DHT22;3032;49.484;11.112;2023-02-11T03:24:40;0.70;99.90
6008;DHT22;3032;49.484;11.112;2023-02-11T03:27:17;1.00;99.90
6008;DHT22;3032;49.484;11.112;2023-02-11T03:30:04;0.90;99.90
6008;DHT22;3032;49.484;11.112;2023-02-11T03:32:39;1.00;99.90
6008;DHT22;3032;49.484;11.112;2023-02-11T03:35:22;0.70;99.90
6008;DHT22;3032;49.484;11.112;2023-02-11T03:38:17;0.70;99.90
6008;DHT22;3032;49.484;11.112;2023-02-11T03:40:45;0.20;99.90
6008;DHT22;3032;49.484;11.112;2023-02-11T03:43:19;0.20;99.90
6008;DHT22;3032;49.484;11.112;2023-02-11T03:45:49;0.10;99.90
6008;DHT22;3032;49.484;11.112;2023-02-11T03:48:22;0.50;99.90
6008;DHT22;3032;49.484;11.112;2023-02-11T03:50:51;0.40;99.90
6008;DHT22;3032;49.484;11.112;2023-02-11T03:53:18;0.40;99.90
6008;DHT22;3032;49.484;11.112;2023-02-11T03:55:46;0.30;99.90
6008;DHT22;3032;49.484;11.112;2023-02-11T03:58:13;0.40;99.90
6008;DHT22;3032;49.484;11.112;2023-02-11T04:00:40;0.60;99.90
6008;DHT22;3032;49.484;11.112;2023-02-11T04:03:08;0.90;99.90
6008;DHT22;3032;49.484;11.112;2023-02-11T04:05:33;0.80;99.90
6008;DHT22;3032;49.484;11.112;2023-02-11T04:07:59;0.90;99.90
6008;DHT22;3032;49.484;11.112;2023-02-11T04:10:25;0.80;99.90
6008;DHT22;3032;49.484;11.112;2023-02-11T04:12:50;1.10;99.90
6008;DHT22;3032;49.484;11.112;2023-02-11T04:15:16;1.10;99.90
6008;DHT22;3032;49.484;11.112;2023-02-11T04:17:42;1.30;99.90
6008;DHT22;3032;49.484;11.112;2023-02-11T04:20:08;1.50;99.90
6008;DHT22;3032;49.484;11.112;2023-02-11T04:22:34;1.10;99.90
6008;DHT22;3032;49.484;11.112;2023-02-11T04:24:59;1.00;99.90
6008;DHT22;3032;49.484;11.112;2023-02-11T04:27:25;0.70;99.90
6008;DHT22;3032;49.484;11.112;2023-02-11T04:29:50;0.50;99.90
6008;DHT22;3032;49.484;11.112;2023-02-11T04:32:16;0.20;99.90
6008;DHT22;3032;49.484;11.112;2023-02-11T04:34:42;0.00;99.90
6008;DHT22;3032;49.484;11.112;2023-02-11T04:37:07;0.00;99.90
6008;DHT22;3032;49.484;11.112;2023-02-11T04:39:33;0.00;99.90
6008;DHT22;3032;49.484;11.112;2023-02-11T04:41:59;0.20;99.90
6008;DHT22;3032;49.484;11.112;2023-02-11T04:44:25;0.50;99.90
6008;DHT22;3032;49.484;11.112;2023-02-11T04:46:50;0.50;99.90
6008;DHT22;3032;49.484;11.112;2023-02-11T04:49:16;0.60;99.90
6008;DHT22;3032;49.484;11.112;2023-02-11T04:51:42;0.50;99.90
6008;DHT22;3032;49.484;11.112;2023-02-11T04:54:09;0.70;99.90
6008;DHT22;3032;49.484;11.112;2023-02-11T04:56:35;1.10;99.90
6008;DHT22;3032;49.484;11.112;2023-02-11T04:59:01;1.20;99.90
6008;DHT22;3032;49.484;11.112;2023-02-11T05:01:27;0.90;99.90
6008;DHT22;3032;49.484;11.112;2023-02-11T05:03:52;0.70;99.90
6008;DHT22;3032;49.484;11.112;2023-02-11T05:06:18;0.80;99.90
6008;DHT22;3032;49.484;11.112;2023-02-11T05:08:43;1.20;99.90
6008;DHT22;3032;49.484;11.112;2023-02-11T05:11:16;1.60;99.90
6008;DHT22;3032;49.484;11.112;2023-02-11T05:13:42;1.80;99.90
6008;DHT22;3032;49.484;11.112;2023-02-11T05:16:08;1.70;99.90
6008;DHT22;3032;49.484;11.112;2023-02-11T05:18:37;1.80;99.90
6008;DHT22;3032;49.484;11.112;2023-02-11T05:21:07;2.10;99.90
6008;DHT22;3032;49.484;11.112;2023-02-11T05:23:33;2.10;99.90
6008;DHT22;3032;49.484;11.112;2023-02-11T05:25:59;1.30;99.90
6008;DHT22;3032;49.484;11.112;2023-02-11T05:28:25;0.60;99.90
6008;DHT22;3032;49.484;11.112;2023-02-11T05:30:50;0.30;99.90
6008;DHT22;3032;49.484;11.112;2023-02-11T05:33:16;0.30;99.90
6008;DHT22;3032;49.484;11.112;2023-02-11T05:35:42;0.40;99.90
6008;DHT22;3032;49.484;11.112;2023-02-11T05:38:07;0.70;99.90
6008;DHT22;3032;49.484;11.112;2023-02-11T05:40:33;0.80;99.90
6008;DHT22;3032;49.484;11.112;2023-02-11T05:42:58;0.90;99.90
6008;DHT22;3032;49.484;11.112;2023-02-11T05:45:24;0.60;99.90
6008;DHT22;3032;49.484;11.112;2023-02-11T05:47:49;0.20;99.90
6008;DHT22;3032;49.484;11.112;2023-02-11T05:50:15;0.10;99.90
6008;DHT22;3032;49.484;11.112;2023-02-11T05:52:40;0.60;99.90
6008;DHT22;3032;49.484;11.112;2023-02-11T05:55:06;0.90;99.90
6008;DHT22;3032;49.484;11.112;2023-02-11T05:57:32;1.40;99.90
6008;DHT22;3032;49.484;11.112;2023-02-11T05:59:57;1.70;99.90
6008;DHT22;3032;49.484;11.112;2023-02-11T06:02:23;1.70;99.90
6008;DHT22;3032;49.484;11.112;2023-02-11T06:04:48;1.70;99.90
6008;DHT22;3032;49.484;11.112;2023-02-11T06:07:14;1.90;99.90
6008;DHT22;3032;49.484;11.112;2023-02-11T06:09:40;2.40;99.90
6008;DHT22;3032;49.484;11.112;2023-02-11T06:12:05;2.10;99.90
6008;DHT22;3032;49.484;11.112;2023-02-11T06:14:32;1.90;99.90
6008;DHT22;3032;49.484;11.112;2023-02-11T06:16:58;2.20;99.90
6008;DHT22;3032;49.484;11.112;2023-02-11T06:19:24;2.30;99.90
6008;DHT22;3032;49.484;11.112;2023-02-11T06:21:49;2.50;99.90
6008;DHT22;3032;49.484;11.112;2023-02-11T06:24:15;2.60;99.90
6008;DHT22;3032;49.484;11.112;2023-02-11T06:26:40;2.70;99.90
6008;DHT22;3032;49.484;11.112;2023-02-11T06:29:06;2.70;99.90
6008;DHT22;3032;49.484;11.112;2023-02-11T06:31:32;2.90;99.90
6008;DHT22;3032;49.484;11.112;2023-02-11T06:33:57;2.60;99.90
6008;DHT22;3032;49.484;11.112;2023-02-11T06:36:23;2.00;99.90
6008;DHT22;3032;49.484;11.112;2023-02-11T06:38:49;2.10;99.90
6008;DHT22;3032;49.484;11.112;2023-02-11T06:41:17;2.40;99.90
6008;DHT22;3032;49.484;11.112;2023-02-11T06:43:44;2.60;99.90
6008;DHT22;3032;49.484;11.112;2023-02-11T06:46:10;2.70;99.90
6008;DHT22;3032;49.484;11.112;2023-02-11T06:48:36;2.70;99.90
6008;DHT22;3032;49.484;11.112;2023-02-11T06:51:03;1.90;99.90
6008;DHT22;3032;49.484;11.112;2023-02-11T06:53:30;1.50;99.90
6008;DHT22;3032;49.484;11.112;2023-02-11T06:55:56;1.30;99.90
6008;DHT22;3032;49.484;11.112;2023-02-11T06:58:25;1.20;99.90
6008;DHT22;3032;49.484;11.112;2023-02-11T07:00:51;1.20;99.90
6008;DHT22;3032;49.484;11.112;2023-02-11T07:03:17;1.30;99.90
6008;DHT22;3032;49.484;11.112;2023-02-11T07:05:42;1.20;99.90
6008;DHT22;3032;49.484;11.112;2023-02-11T07:08:08;1.20;99.90
6008;DHT22;3032;49.484;11.112;2023-02-11T07:10:33;1.40;99.90
6008;DHT22;3032;49.484;11.112;2023-02-11T07:12:59;1.50;99.90
6008;DHT22;3032;49.484;11.112;2023-02-11T07:15:25;1.60;99.90
6008;DHT22;3032;49.484;11.112;2023-02-11T07:17:50;2.00;99.90
6008;DHT22;3032;49.484;11.112;2023-02-11T07:20:16;1.80;99.90
6008;DHT22;3032;49.484;11.112;2023-02-11T07:22:41;2.30;99.90
6008;DHT22;3032;49.484;11.112;2023-02-11T07:25:07;2.80;99.90
6008;DHT22;3032;49.484;11.112;2023-02-11T07:27:32;3.40;99.90
6008;DHT22;3032;49.484;11.112;2023-02-11T07:29:58;4.00;99.90
6008;DHT22;3032;49.484;11.112;2023-02-11T07:32:24;4.80;99.90
6008;DHT22;3032;49.484;11.112;2023-02-11T07:34:49;5.10;99.90
6008;DHT22;3032;49.484;11.112;2023-02-11T07:37:15;5.80;99.90
6008;DHT22;3032;49.484;11.112;2023-02-11T07:39:40;6.40;99.90
6008;DHT22;3032;49.484;11.112;2023-02-11T07:42:06;6.20;99.90
6008;DHT22;3032;49.484;11.112;2023-02-11T07:44:31;6.20;99.90
6008;DHT22;3032;49.484;11.112;2023-02-11T07:46:58;6.40;99.90
6008;DHT22;3032;49.484;11.112;2023-02-11T07:49:23;6.50;99.90
6008;DHT22;3032;49.484;11.112;2023-02-11T07:51:49;6.60;99.90
6008;DHT22;3032;49.484;11.112;2023-02-11T07:54:15;6.60;99.90
6008;DHT22;3032;49.484;11.112;2023-02-11T07:56:41;6.10;99.90
6008;DHT22;3032;49.484;11.112;2023-02-11T07:59:06;5.90;99.90
6008;DHT22;3032;49.484;11.112;2023-02-11T08:01:32;5.60;99.90
6008;DHT22;3032;49.484;11.112;2023-02-11T08:04:00;6.30;99.90
6008;DHT22;3032;49.484;11.112;2023-02-11T08:06:29;7.90;99.90
6008;DHT22;3032;49.484;11.112;2023-02-11T08:08:55;7.90;99.90
6008;DHT22;3032;49.484;11.112;2023-02-11T08:11:24;7.90;99.90
6008;DHT22;3032;49.484;11.112;2023-02-11T08:13:50;8.30;99.90
6008;DHT22;3032;49.484;11.112;2023-02-11T08:16:22;9.10;99.90
6008;DHT22;3032;49.484;11.112;2023-02-11T08:18:49;9.20;99.90
6008;DHT22;3032;49.484;11.112;2023-02-11T08:21:15;9.40;99.90
6008;DHT22;3032;49.484;11.112;2023-02-11T08:23:42;8.80;99.90
6008;DHT22;3032;49.484;11.112;2023-02-11T08:26:21;8.60;99.90
6008;DHT22;3032;49.484;11.112;2023-02-11T08:28:48;8.40;99.90
6008;DHT22;3032;49.484;11.112;2023-02-11T08:31:23;8.40;99.90
6008;DHT22;3032;49.484;11.112;2023-02-11T08:33:49;8.40;99.90
6008;DHT22;3032;49.484;11.112;2023-02-11T08:36:17;8.40;99.90
6008;DHT22;3032;49.484;11.112;2023-02-11T08:38:43;8.30;99.90
6008;DHT22;3032;49.484;11.112;2023-02-11T08:41:09;8.20;99.90
6008;DHT22;3032;49.484;11.112;2023-02-11T08:43:36;8.20;99.90
6008;DHT22;3032;49.484;11.112;2023-02-11T08:46:02;8.00;99.90
6008;DHT22;3032;49.484;11.112;2023-02-11T08:48:28;7.80;99.90
6008;DHT22;3032;49.484;11.112;2023-02-11T08:50:55;7.80;99.90
6008;DHT22;3032;49.484;11.112;2023-02-11T08:53:21;7.40;99.90
6008;DHT22;3032;49.484;11.112;2023-02-11T08:55:53;7.30;99.90
6008;DHT22;3032;49.484;11.112;2023-02-11T08:58:20;7.30;99.90
6008;DHT22;3032;49.484;11.112;2023-02-11T09:00:46;7.10;99.90
6008;DHT22;3032;49.484;11.112;2023-02-11T09:03:12;7.00;99.90
6008;DHT22;3032;49.484;11.112;2023-02-11T09:05:42;6.80;99.90
6008;DHT22;3032;49.484;11.112;2023-02-11T09:08:08;6.90;99.90
6008;DHT22;3032;49.484;11.112;2023-02-11T09:10:33;7.00;99.90
6008;DHT22;3032;49.484;11.112;2023-02-11T09:12:59;6.90;99.90
6008;DHT22;3032;49.484;11.112;2023-02-11T09:15:25;6.70;99.90
6008;DHT22;3032;49.484;11.112;2023-02-11T09:17:51;6.70;99.90
6008;DHT22;3032;49.484;11.112;2023-02-11T09:20:16;6.90;99.90
6008;DHT22;3032;49.484;11.112;2023-02-11T09:22:42;7.20;99.90
6008;DHT22;3032;49.484;11.112;2023-02-11T09:25:08;7.30;99.90
6008;DHT22;3032;49.484;11.112;2023-02-11T09:27:33;7.80;99.90
6008;DHT22;3032;49.484;11.112;2023-02-11T09:29:59;8.20;99.90
6008;DHT22;3032;49.484;11.112;2023-02-11T09:32:24;8.50;99.90
6008;DHT22;3032;49.484;11.112;2023-02-11T09:34:50;8.50;99.90
6008;DHT22;3032;49.484;11.112;2023-02-11T09:37:15;8.40;99.90
6008;DHT22;3032;49.484;11.112;2023-02-11T09:39:41;8.90;99.90
6008;DHT22;3032;49.484;11.112;2023-02-11T09:44:45;9.70;99.90
6008;DHT22;3032;49.484;11.112;2023-02-11T09:47:31;9.20;99.90
6008;DHT22;3032;49.484;11.112;2023-02-11T09:50:11;9.30;99.90
6008;DHT22;3032;49.484;11.112;2023-02-11T09:55:35;10.00;99.90
6008;DHT22;3032;49.484;11.112;2023-02-11T09:58:06;10.50;99.80
6008;DHT22;3032;49.484;11.112;2023-02-11T10:06:23;10.00;99.80
6008;DHT22;3032;49.484;11.112;2023-02-11T10:12:02;12.10;98.60
6008;DHT22;3032;49.484;11.112;2023-02-11T10:17:25;13.30;95.00
6008;DHT22;3032;49.484;11.112;2023-02-11T10:23:25;12.00;94.70
6008;DHT22;3032;49.484;11.112;2023-02-11T10:25:54;11.40;96.10
6008;DHT22;3032;49.484;11.112;2023-02-11T10:28:23;11.30;96.60
6008;DHT22;3032;49.484;11.112;2023-02-11T10:31:22;11.30;96.80
6008;DHT22;3032;49.484;11.112;2023-02-11T10:34:05;10.90;97.10
6008;DHT22;3032;49.484;11.112;2023-02-11T10:36:36;11.00;97.80
6008;DHT22;3032;49.484;11.112;2023-02-11T10:39:17;11.40;97.60
6008;DHT22;3032;49.484;11.112;2023-02-11T10:41:58;11.20;98.10
6008;DHT22;3032;49.484;11.112;2023-02-11T10:44:42;11.10;98.40
6008;DHT22;3032;49.484;11.112;2023-02-11T10:47:19;10.90;98.70
6008;DHT22;3032;49.484;11.112;2023-02-11T10:49:47;10.90;99.40
6008;DHT22;3032;49.484;11.112;2023-02-11T10:57:37;10.50;99.90
6008;DHT22;3032;49.484;11.112;2023-02-11T11:00:18;10.70;99.90
6008;DHT22;3032;49.484;11.112;2023-02-11T11:02:52;11.10;99.80
6008;DHT22;3032;49.484;11.112;2023-02-11T11:05:26;11.00;99.50
6008;DHT22;3032;49.484;11.112;2023-02-11T11:07:58;10.90;99.60
6008;DHT22;3032;49.484;11.112;2023-02-11T11:14:12;11.00;99.90
6008;DHT22;3032;49.484;11.112;2023-02-11T11:16:22;10.90;99.50
6008;DHT22;3032;49.484;11.112;2023-02-11T11:18:51;10.20;99.90
6008;DHT22;3032;49.484;11.112;2023-02-11T11:21:25;10.00;99.90
6008;DHT22;3032;49.484;11.112;2023-02-11T11:23:58;9.70;99.90
6008;DHT22;3032;49.484;11.112;2023-02-11T11:26:41;9.70;99.90
6008;DHT22;3032;49.484;11.112;2023-02-11T11:29:29;9.90;99.90
6008;DHT22;3032;49.484;11.112;2023-02-11T11:31:59;9.90;99.90
6008;DHT22;3032;49.484;11.112;2023-02-11T11:34:39;9.70;99.90
6008;DHT22;3032;49.484;11.112;2023-02-11T11:37:19;9.80;99.90
6008;DHT22;3032;49.484;11.112;2023-02-11T11:40:19;9.90;99.90
6008;DHT22;3032;49.484;11.112;2023-02-11T11:45:39;9.60;99.90
6008;DHT22;3032;49.484;11.112;2023-02-11T11:50:56;9.70;99.90
6008;DHT22;3032;49.484;11.112;2023-02-11T11:53:26;9.80;99.90
6008;DHT22;3032;49.484;11.112;2023-02-11T11:56:04;9.80;99.90
6008;DHT22;3032;49.484;11.112;2023-02-11T11:58:32;9.70;99.90
6008;DHT22;3032;49.484;11.112;2023-02-11T12:04:09;9.40;99.90
6008;DHT22;3032;49.484;11.112;2023-02-11T12:09:25;9.60;99.90
6008;DHT22;3032;49.484;11.112;2023-02-11T12:12:19;9.50;99.90
6008;DHT22;3032;49.484;11.112;2023-02-11T12:15:21;9.70;99.90
6008;DHT22;3032;49.484;11.112;2023-02-11T12:20:22;9.80;99.90
6008;DHT22;3032;49.484;11.112;2023-02-11T12:26:08;9.90;99.90
6008;DHT22;3032;49.484;11.112;2023-02-11T12:31:20;10.30;99.90
6008;DHT22;3032;49.484;11.112;2023-02-11T12:33:59;10.30;99.90
6008;DHT22;3032;49.484;11.112;2023-02-11T12:39:25;10.20;99.90
6008;DHT22;3032;49.484;11.112;2023-02-11T12:42:15;10.00;99.90
6008;DHT22;3032;49.484;11.112;2023-02-11T12:50:24;10.20;99.90
6008;DHT22;3032;49.484;11.112;2023-02-11T12:53:07;10.30;99.90
6008;DHT22;3032;49.484;11.112;2023-02-11T12:55:37;10.30;99.90
6008;DHT22;3032;49.484;11.112;2023-02-11T12:58:04;10.50;99.90
6008;DHT22;3032;49.484;11.112;2023-02-11T13:00:41;10.70;99.90
6008;DHT22;3032;49.484;11.112;2023-02-11T13:03:20;10.90;99.90
6008;DHT22;3032;49.484;11.112;2023-02-11T13:05:52;10.90;99.90
6008;DHT22;3032;49.484;11.112;2023-02-11T13:08:29;10.60;99.90
6008;DHT22;3032;49.484;11.112;2023-02-11T13:10:59;10.50;99.90
6008;DHT22;3032;49.484;11.112;2023-02-11T13:13:48;10.40;99.90
6008;DHT22;3032;49.484;11.112;2023-02-11T13:24:25;10.40;99.90
6008;DHT22;3032;49.484;11.112;2023-02-11T13:30:07;10.40;99.90
6008;DHT22;3032;49.484;11.112;2023-02-11T13:37:55;10.00;99.90
6008;DHT22;3032;49.484;11.112;2023-02-11T13:40:24;10.10;99.90
6008;DHT22;3032;49.484;11.112;2023-02-11T13:42:52;10.20;99.90
6008;DHT22;3032;49.484;11.112;2023-02-11T13:45:33;10.30;99.90
6008;DHT22;3032;49.484;11.112;2023-02-11T13:48:14;10.20;99.90
6008;DHT22;3032;49.484;11.112;2023-02-11T13:50:47;10.00;99.90
6008;DHT22;3032;49.484;11.112;2023-02-11T13:53:15;9.80;99.90
6008;DHT22;3032;49.484;11.112;2023-02-11T13:55:45;9.90;99.90
6008;DHT22;3032;49.484;11.112;2023-02-11T13:58:25;10.00;99.90
6008;DHT22;3032;49.484;11.112;2023-02-11T14:00:57;9.80;99.90
6008;DHT22;3032;49.484;11.112;2023-02-11T14:03:24;9.40;99.90
6008;DHT22;3032;49.484;11.112;2023-02-11T14:19:40;9.30;99.90
6008;DHT22;3032;49.484;11.112;2023-02-11T14:22:15;9.00;99.90
6008;DHT22;3032;49.484;11.112;2023-02-11T14:24:59;8.80;99.90
6008;DHT22;3032;49.484;11.112;2023-02-11T14:27:43;8.70;99.90
6008;DHT22;3032;49.484;11.112;2023-02-11T14:30:25;8.60;99.90
6008;DHT22;3032;49.484;11.112;2023-02-11T14:43:52;9.20;99.90
6008;DHT22;3032;49.484;11.112;2023-02-11T14:46:21;9.10;99.90
6008;DHT22;3032;49.484;11.112;2023-02-11T14:48:53;9.10;99.90
6008;DHT22;3032;49.484;11.112;2023-02-11T14:51:31;9.10;99.90
6008;DHT22;3032;49.484;11.112;2023-02-11T14:54:04;9.30;99.90
6008;DHT22;3032;49.484;11.112;2023-02-11T14:56:35;9.40;99.90
6008;DHT22;3032;49.484;11.112;2023-02-11T14:59:01;9.50;99.90
6008;DHT22;3032;49.484;11.112;2023-02-11T15:01:40;9.50;99.90
6008;DHT22;3032;49.484;11.112;2023-02-11T15:04:26;9.50;99.90
6008;DHT22;3032;49.484;11.112;2023-02-11T15:06:53;9.60;99.90
6008;DHT22;3032;49.484;11.112;2023-02-11T15:09:22;9.70;99.90
6008;DHT22;3032;49.484;11.112;2023-02-11T15:11:51;9.70;99.90
6008;DHT22;3032;49.484;11.112;2023-02-11T15:14:31;9.90;99.90
6008;DHT22;3032;49.484;11.112;2023-02-11T15:17:01;10.00;99.90
6008;DHT22;3032;49.484;11.112;2023-02-11T15:19:31;9.90;99.90
6008;DHT22;3032;49.484;11.112;2023-02-11T15:21:57;9.60;99.90
6008;DHT22;3032;49.484;11.112;2023-02-11T15:26:57;9.10;99.90
6008;DHT22;3032;49.484;11.112;2023-02-11T15:29:33;9.40;99.90
6008;DHT22;3032;49.484;11.112;2023-02-11T15:34:32;9.40;99.90
6008;DHT22;3032;49.484;11.112;2023-02-11T15:36:58;9.40;99.90
6008;DHT22;3032;49.484;11.112;2023-02-11T15:39:36;9.30;99.90
6008;DHT22;3032;49.484;11.112;2023-02-11T15:42:18;9.40;99.90
6008;DHT22;3032;49.484;11.112;2023-02-11T15:44:45;9.20;99.90
6008;DHT22;3032;49.484;11.112;2023-02-11T15:47:15;9.10;99.90
6008;DHT22;3032;49.484;11.112;2023-02-11T15:49:45;9.00;99.90
6008;DHT22;3032;49.484;11.112;2023-02-11T15:52:14;9.10;99.90
6008;DHT22;3032;49.484;11.112;2023-02-11T15:54:46;9.20;99.90
6008;DHT22;3032;49.484;11.112;2023-02-11T15:57:12;9.40;99.90
6008;DHT22;3032;49.484;11.112;2023-02-11T15:59:40;9.40;99.90
6008;DHT22;3032;49.484;11.112;2023-02-11T16:02:30;9.50;99.90
6008;DHT22;3032;49.484;11.112;2023-02-11T16:05:06;9.50;99.90
6008;DHT22;3032;49.484;11.112;2023-02-11T16:07:48;9.70;99.90
6008;DHT22;3032;49.484;11.112;2023-02-11T16:10:23;9.80;99.90
6008;DHT22;3032;49.484;11.112;2023-02-11T16:15:42;9.80;99.90
6008;DHT22;3032;49.484;11.112;2023-02-11T16:18:32;9.80;99.90
6008;DHT22;3032;49.484;11.112;2023-02-11T16:20:59;9.70;99.90
6008;DHT22;3032;49.484;11.112;2023-02-11T16:23:32;9.80;99.90
6008;DHT22;3032;49.484;11.112;2023-02-11T16:26:26;9.80;99.90
6008;DHT22;3032;49.484;11.112;2023-02-11T16:29:02;9.80;99.90
6008;DHT22;3032;49.484;11.112;2023-02-11T16:31:36;9.70;99.90
6008;DHT22;3032;49.484;11.112;2023-02-11T16:34:06;9.80;99.90
6008;DHT22;3032;49.484;11.112;2023-02-11T16:36:35;9.80;99.90
6008;DHT22;3032;49.484;11.112;2023-02-11T16:39:00;9.60;99.90
6008;DHT22;3032;49.484;11.112;2023-02-11T16:41:26;9.60;99.90
6008;DHT22;3032;49.484;11.112;2023-02-11T16:43:55;9.60;99.90
6008;DHT22;3032;49.484;11.112;2023-02-11T16:46:21;9.70;99.90
6008;DHT22;3032;49.484;11.112;2023-02-11T16:48:46;10.00;99.90
6008;DHT22;3032;49.484;11.112;2023-02-11T16:51:12;9.60;99.90
6008;DHT22;3032;49.484;11.112;2023-02-11T16:53:38;9.40;99.90
6008;DHT22;3032;49.484;11.112;2023-02-11T16:56:03;9.50;99.90
6008;DHT22;3032;49.484;11.112;2023-02-11T16:58:29;9.70;99.90
6008;DHT22;3032;49.484;11.112;2023-02-11T17:00:55;9.80;99.90
6008;DHT22;3032;49.484;11.112;2023-02-11T17:03:23;9.60;99.90
6008;DHT22;3032;49.484;11.112;2023-02-11T17:05:50;9.50;99.90
6008;DHT22;3032;49.484;11.112;2023-02-11T17:08:15;9.40;99.90
6008;DHT22;3032;49.484;11.112;2023-02-11T17:10:41;9.40;99.90
6008;DHT22;3032;49.484;11.112;2023-02-11T17:13:07;9.40;99.90
6008;DHT22;3032;49.484;11.112;2023-02-11T17:15:32;9.40;99.90
6008;DHT22;3032;49.484;11.112;2023-02-11T17:17:58;9.50;99.90
6008;DHT22;3032;49.484;11.112;2023-02-11T17:20:24;9.50;99.90
6008;DHT22;3032;49.484;11.112;2023-02-11T17:22:50;9.60;99.90
6008;DHT22;3032;49.484;11.112;2023-02-11T17:25:16;9.50;99.90
6008;DHT22;3032;49.484;11.112;2023-02-11T17:27:41;9.40;99.90
6008;DHT22;3032;49.484;11.112;2023-02-11T17:30:08;9.30;99.90
6008;DHT22;3032;49.484;11.112;2023-02-11T17:32:34;9.20;99.90
6008;DHT22;3032;49.484;11.112;2023-02-11T17:35:00;9.10;99.90
6008;DHT22;3032;49.484;11.112;2023-02-11T17:37:25;9.20;99.90
6008;DHT22;3032;49.484;11.112;2023-02-11T17:39:51;9.30;99.90
6008;DHT22;3032;49.484;11.112;2023-02-11T17:42:17;9.40;99.90
6008;DHT22;3032;49.484;11.112;2023-02-11T17:44:44;9.40;99.90
6008;DHT22;3032;49.484;11.112;2023-02-11T17:47:10;9.50;99.90
6008;DHT22;3032;49.484;11.112;2023-02-11T17:49:37;9.40;99.90
6008;DHT22;3032;49.484;11.112;2023-02-11T17:52:03;9.20;99.90
6008;DHT22;3032;49.484;11.112;2023-02-11T17:54:28;9.30;99.90
6008;DHT22;3032;49.484;11.112;2023-02-11T17:56:54;9.30;99.90
6008;DHT22;3032;49.484;11.112;2023-02-11T17:59:19;9.20;99.90
6008;DHT22;3032;49.484;11.112;2023-02-11T18:01:45;9.20;99.90
6008;DHT22;3032;49.484;11.112;2023-02-11T18:04:13;9.20;99.90
6008;DHT22;3032;49.484;11.112;2023-02-11T18:06:39;9.00;99.90
6008;DHT22;3032;49.484;11.112;2023-02-11T18:09:05;8.90;99.90
6008;DHT22;3032;49.484;11.112;2023-02-11T18:11:32;9.00;99.90
6008;DHT22;3032;49.484;11.112;2023-02-11T18:13:59;9.00;99.90
6008;DHT22;3032;49.484;11.112;2023-02-11T18:16:25;8.90;99.90
6008;DHT22;3032;49.484;11.112;2023-02-11T18:18:53;9.10;99.90
6008;DHT22;3032;49.484;11.112;2023-02-11T18:21:20;9.20;99.90